createdAt,value
2022-08-05T00:00:25.975Z,5.00
2022-08-05T00:01:27.705Z,4.10
2022-08-05T00:02:25.122Z,4.70
2022-08-05T00:03:25.054Z,5.30
2022-08-05T00:04:25.024Z,3.60
2022-08-05T00:05:27.246Z,6.10
2022-08-05T00:06:30.698Z,5.20
2022-08-05T00:07:59.299Z,6.00
2022-08-05T00:08:34.786Z,5.10
2022-08-05T00:09:24.975Z,5.70
2022-08-05T00:10:27.239Z,5.80
2022-08-05T00:11:30.598Z,5.40
2022-08-05T00:12:24.940Z,4.90
2022-08-05T00:13:38.032Z,4.80
2022-08-05T00:14:27.772Z,4.40
2022-08-05T00:15:54.912Z,5.80
2022-08-05T00:16:35.548Z,8.50
2022-08-05T00:17:25.810Z,4.20
2022-08-05T00:18:24.883Z,5.20
2022-08-05T00:19:33.134Z,5.50
2022-08-05T00:20:28.944Z,4.40
2022-08-05T00:21:24.850Z,4.70
2022-08-05T00:22:24.843Z,4.60
2022-08-05T00:23:44.731Z,7.00
2022-08-05T00:24:30.671Z,5.80
2022-08-05T00:25:24.788Z,5.70
2022-08-05T00:26:24.788Z,6.00
2022-08-05T00:27:28.501Z,5.40
2022-08-05T00:28:29.718Z,8.00
2022-08-05T00:29:25.371Z,4.80
2022-08-05T00:30:29.052Z,5.20
2022-08-05T00:31:41.393Z,4.40
2022-08-05T00:32:25.859Z,4.70
2022-08-05T00:34:54.549Z,4.00
2022-08-05T00:34:56.489Z,5.20
2022-08-05T00:35:24.697Z,6.90
2022-08-05T00:37:10.519Z,6.90
2022-08-05T00:37:24.951Z,7.30
2022-08-05T00:38:28.900Z,5.20
2022-08-05T00:39:24.704Z,6.60
2022-08-05T00:40:26.801Z,5.50
2022-08-05T00:41:24.629Z,4.10
2022-08-05T00:42:31.778Z,4.20
2022-08-05T00:43:24.594Z,5.30
2022-08-05T00:44:30.856Z,5.80
2022-08-05T00:45:28.272Z,4.90
2022-08-05T00:47:57.187Z,8.30
2022-08-05T00:48:35.052Z,6.80
2022-08-05T00:49:51.020Z,4.90
2022-08-05T00:50:35.038Z,6.30
2022-08-05T00:51:50.270Z,6.10
2022-08-05T00:52:34.970Z,4.80
2022-08-05T00:54:00.841Z,6.70
2022-08-05T00:54:34.952Z,7.90
2022-08-05T00:55:42.883Z,5.60
2022-08-05T00:56:34.940Z,7.80
2022-08-05T00:57:38.208Z,6.70
2022-08-05T00:58:34.908Z,7.20
2022-08-05T00:59:44.136Z,7.20
2022-08-05T01:00:34.945Z,6.80
2022-08-05T01:01:42.516Z,6.10
2022-08-05T01:02:34.866Z,5.60
2022-08-05T01:03:34.849Z,7.40
2022-08-05T01:04:34.837Z,6.80
2022-08-05T01:05:34.850Z,5.90
2022-08-05T01:06:34.829Z,7.00
2022-08-05T01:07:34.814Z,6.50
2022-08-05T01:08:43.160Z,7.40
2022-08-05T01:09:34.785Z,5.80
2022-08-05T01:10:34.782Z,6.10
2022-08-05T01:11:37.248Z,7.10
2022-08-05T01:12:34.752Z,5.90
2022-08-05T01:13:57.323Z,6.90
2022-08-05T01:14:34.731Z,7.10
2022-08-05T01:15:35.803Z,6.20
2022-08-05T01:16:34.719Z,5.50
2022-08-05T01:17:40.266Z,6.30
2022-08-05T01:18:34.686Z,6.60
2022-08-05T01:20:02.001Z,6.70
2022-08-05T01:20:34.678Z,5.90
2022-08-05T01:21:37.893Z,5.80
2022-08-05T01:22:34.649Z,4.30
2022-08-05T01:23:35.155Z,5.90
2022-08-05T01:24:34.618Z,7.10
2022-08-05T01:25:40.999Z,5.80
2022-08-05T01:26:34.597Z,4.30
2022-08-05T01:27:34.646Z,4.30
2022-08-05T01:28:34.923Z,6.20
2022-08-05T01:29:34.949Z,5.00
2022-08-05T01:30:35.248Z,4.70
2022-08-05T01:31:42.545Z,6.20
2022-08-05T01:32:34.545Z,4.80
2022-08-05T01:33:35.459Z,5.40
2022-08-05T01:34:35.790Z,5.60
2022-08-05T01:35:50.957Z,4.20
2022-08-05T01:36:34.513Z,4.40
2022-08-05T01:37:34.471Z,4.50
2022-08-05T01:38:34.501Z,5.20
2022-08-05T01:39:46.355Z,6.20
2022-08-05T01:40:34.439Z,4.00
2022-08-05T01:41:34.431Z,4.70
2022-08-05T01:42:34.416Z,4.50
2022-08-05T01:43:34.415Z,4.40
2022-08-05T01:44:35.507Z,4.20
2022-08-05T01:45:35.038Z,3.00
2022-08-05T01:46:42.668Z,4.90
2022-08-05T01:47:39.709Z,3.90
2022-08-05T01:48:34.365Z,5.50
2022-08-05T01:50:00.196Z,4.00
2022-08-05T01:50:34.327Z,4.50
2022-08-05T01:51:34.322Z,4.60
2022-08-05T01:52:34.356Z,4.80
2022-08-05T01:53:57.516Z,5.90
2022-08-05T01:54:34.281Z,3.20
2022-08-05T01:55:36.049Z,3.80
2022-08-05T01:58:10.131Z,5.00
2022-08-05T01:58:11.257Z,3.20
2022-08-05T01:58:40.684Z,5.20
2022-08-05T01:59:34.230Z,7.00
2022-08-05T02:00:34.233Z,4.50
2022-08-05T02:01:39.786Z,3.90
2022-08-05T02:02:34.239Z,3.30
2022-08-05T02:03:34.452Z,3.70
2022-08-05T02:04:34.185Z,4.20
2022-08-05T02:05:35.999Z,5.60
2022-08-05T02:06:38.197Z,3.40
2022-08-05T02:07:34.177Z,5.50
2022-08-05T02:08:40.499Z,4.10
2022-08-05T02:09:34.118Z,4.20
2022-08-05T02:10:34.108Z,4.40
2022-08-05T02:11:34.214Z,4.70
2022-08-05T02:12:34.102Z,3.80
2022-08-05T02:13:48.710Z,4.60
2022-08-05T02:14:34.065Z,3.80
2022-08-05T02:15:34.149Z,4.80
2022-08-05T02:16:34.040Z,5.60
2022-08-05T02:18:31.306Z,5.20
2022-08-05T02:18:34.674Z,5.60
2022-08-05T02:19:34.469Z,3.40
2022-08-05T02:20:39.079Z,4.60
2022-08-05T02:21:40.278Z,4.50
2022-08-05T02:22:33.973Z,5.50
2022-08-05T02:23:33.962Z,4.60
2022-08-05T02:24:33.963Z,4.00
2022-08-05T02:25:33.949Z,3.50
2022-08-05T02:26:33.927Z,3.90
2022-08-05T02:27:58.532Z,4.30
2022-08-05T02:28:38.152Z,4.30
2022-08-05T02:29:58.388Z,3.60
2022-08-05T02:30:34.490Z,4.20
2022-08-05T02:31:34.582Z,3.60
2022-08-05T02:32:33.864Z,4.50
2022-08-05T02:33:35.912Z,3.20
2022-08-05T02:34:33.837Z,4.70
2022-08-05T02:35:38.103Z,3.20
2022-08-05T02:36:33.831Z,4.00
2022-08-05T02:37:33.803Z,3.50
2022-08-05T02:38:35.449Z,6.30
2022-08-05T02:39:33.834Z,5.10
2022-08-05T02:40:33.773Z,5.20
2022-08-05T02:41:43.286Z,4.50
2022-08-05T02:42:36.075Z,4.60
2022-08-05T02:43:34.589Z,4.00
2022-08-05T02:44:33.744Z,5.00
2022-08-05T02:45:52.239Z,4.30
2022-08-05T02:46:33.711Z,3.60
2022-08-05T02:48:43.534Z,7.20
2022-08-05T02:49:43.642Z,5.40
2022-08-05T02:50:44.323Z,5.70
2022-08-05T02:52:03.732Z,4.40
2022-08-05T02:52:43.605Z,4.50
2022-08-05T02:53:43.605Z,4.50
2022-08-05T02:54:50.754Z,4.40
2022-08-05T02:55:54.399Z,6.90
2022-08-05T02:56:43.560Z,4.60
2022-08-05T02:58:09.459Z,5.20
2022-08-05T02:58:43.928Z,5.10
2022-08-05T02:59:50.463Z,4.40
2022-08-05T03:00:45.959Z,4.90
2022-08-05T03:01:43.683Z,4.80
2022-08-05T03:02:43.494Z,5.00
2022-08-05T03:04:11.790Z,5.90
2022-08-05T03:04:43.471Z,5.30
2022-08-05T03:06:56.225Z,4.50
2022-08-05T03:06:56.814Z,7.60
2022-08-05T03:08:07.165Z,4.80
2022-08-05T03:08:43.425Z,4.20
2022-08-05T03:09:51.497Z,5.00
2022-08-05T03:10:43.409Z,5.30
2022-08-05T03:11:56.350Z,6.10
2022-08-05T03:12:43.380Z,6.30
2022-08-05T03:13:52.036Z,3.90
2022-08-05T03:14:45.942Z,4.70
2022-08-05T03:15:43.358Z,4.90
2022-08-05T03:16:43.355Z,5.20
2022-08-05T03:17:44.825Z,4.30
2022-08-05T03:18:43.359Z,6.00
2022-08-05T03:19:45.612Z,4.80
2022-08-05T03:20:48.586Z,5.70
2022-08-05T03:21:49.554Z,5.10
2022-08-05T03:22:46.812Z,5.10
2022-08-05T03:23:43.256Z,5.30
2022-08-05T03:24:43.244Z,6.50
2022-08-05T03:26:04.546Z,6.40
2022-08-05T03:26:43.249Z,4.50
2022-08-05T03:27:59.208Z,6.50
2022-08-05T03:28:43.234Z,6.80
2022-08-05T03:29:45.748Z,6.70
2022-08-05T03:30:43.182Z,7.20
2022-08-05T03:31:56.759Z,5.80
2022-08-05T03:32:43.171Z,5.40
2022-08-05T03:33:52.750Z,6.40
2022-08-05T03:34:50.382Z,7.50
2022-08-05T03:35:43.139Z,9.60
2022-08-05T03:36:43.112Z,5.30
2022-08-05T03:37:46.721Z,7.30
2022-08-05T03:38:43.234Z,7.00
2022-08-05T03:39:47.402Z,7.00
2022-08-05T03:40:45.077Z,8.90
2022-08-05T03:41:43.057Z,7.50
2022-08-05T03:42:52.110Z,5.80
2022-08-05T03:44:08.730Z,7.80
2022-08-05T03:44:43.642Z,6.90
2022-08-05T03:45:57.315Z,7.10
2022-08-05T03:46:43.013Z,6.10
2022-08-05T03:47:42.996Z,7.00
2022-08-05T03:48:43.010Z,6.30
2022-08-05T03:49:51.417Z,9.40
2022-08-05T03:50:42.967Z,7.50
2022-08-05T03:52:50.354Z,8.00
2022-08-05T03:55:00.376Z,7.70
2022-08-05T03:55:49.760Z,7.80
2022-08-05T03:56:00.949Z,8.20
2022-08-05T03:56:06.097Z,9.70
2022-08-05T03:56:42.893Z,9.30
2022-08-05T03:57:43.020Z,7.40
2022-08-05T03:58:42.903Z,10.20
2022-08-05T03:59:47.153Z,8.40
2022-08-05T04:00:44.316Z,9.20
2022-08-05T04:01:42.938Z,7.60
2022-08-05T04:02:51.888Z,8.60
2022-08-05T04:04:08.593Z,9.40
2022-08-05T04:04:42.800Z,8.90
2022-08-05T04:05:42.794Z,9.80
2022-08-05T04:06:47.828Z,7.90
2022-08-05T04:07:53.063Z,8.00
2022-08-05T04:08:42.756Z,7.90
2022-08-05T04:09:53.623Z,9.70
2022-08-05T04:10:42.743Z,8.60
2022-08-05T04:11:42.724Z,7.70
2022-08-05T04:13:50.017Z,8.80
2022-08-05T04:14:42.717Z,9.20
2022-08-05T04:16:02.973Z,8.60
2022-08-05T04:16:42.666Z,8.30
2022-08-05T04:17:56.316Z,9.70
2022-08-05T04:18:42.690Z,9.00
2022-08-05T04:19:42.636Z,9.70
2022-08-05T04:20:42.649Z,7.90
2022-08-05T04:22:10.006Z,9.70
2022-08-05T04:22:42.599Z,8.60
2022-08-05T04:24:05.977Z,10.50
2022-08-05T04:24:43.910Z,9.80
2022-08-05T04:25:57.139Z,9.80
2022-08-05T04:26:42.569Z,9.10
2022-08-05T04:27:57.430Z,10.50
2022-08-05T04:28:51.034Z,12.80
2022-08-05T04:29:42.514Z,16.30
2022-08-05T04:30:42.890Z,13.40
2022-08-05T04:31:42.956Z,12.90
2022-08-05T04:32:42.492Z,14.50
2022-08-05T04:34:17.594Z,17.00
2022-08-05T04:34:43.555Z,15.00
2022-08-05T04:36:11.270Z,16.50
2022-08-05T04:36:49.808Z,18.90
2022-08-05T04:37:42.427Z,17.50
2022-08-05T04:38:42.418Z,14.20
2022-08-05T04:39:42.505Z,15.10
2022-08-05T04:40:47.858Z,14.80
2022-08-05T04:41:42.391Z,15.40
2022-08-05T04:42:42.390Z,17.60
2022-08-05T04:43:48.171Z,17.80
2022-08-05T04:44:42.374Z,19.80
2022-08-05T04:45:48.337Z,19.90
2022-08-05T04:46:42.331Z,17.80
2022-08-05T04:47:42.907Z,19.90
2022-08-05T04:50:01.066Z,17.80
2022-08-05T04:50:37.609Z,18.80
2022-08-05T04:51:32.324Z,21.80
2022-08-05T04:52:33.400Z,20.10
2022-08-05T04:53:33.636Z,17.60
2022-08-05T04:54:32.261Z,18.50
2022-08-05T04:56:14.486Z,22.80
2022-08-05T04:56:37.103Z,20.50
2022-08-05T04:57:37.167Z,20.50
2022-08-05T04:58:32.215Z,19.30
2022-08-05T04:59:40.604Z,20.00
2022-08-05T05:00:32.249Z,22.40
2022-08-05T05:01:50.356Z,24.60
2022-08-05T05:02:37.314Z,22.80
2022-08-05T05:03:41.878Z,23.40
2022-08-05T05:04:32.158Z,22.50
2022-08-05T05:05:32.149Z,23.60
2022-08-05T05:06:40.779Z,23.70
2022-08-05T05:07:35.311Z,23.40
2022-08-05T05:08:32.108Z,26.10
2022-08-05T05:09:32.095Z,24.60
2022-08-05T05:10:33.399Z,23.60
2022-08-05T05:11:41.398Z,26.80
2022-08-05T05:12:32.100Z,26.40
2022-08-05T05:13:32.387Z,28.30
2022-08-05T05:14:32.373Z,28.10
2022-08-05T05:15:56.841Z,25.40
2022-08-05T05:16:32.020Z,28.00
2022-08-05T05:17:57.100Z,28.60
2022-08-05T05:18:34.107Z,26.60
2022-08-05T05:19:37.117Z,28.20
2022-08-05T05:20:31.985Z,25.20
2022-08-05T05:21:33.133Z,31.00
2022-08-05T05:22:32.000Z,26.10
2022-08-05T05:24:01.995Z,28.30
2022-08-05T05:24:56.315Z,27.10
2022-08-05T05:25:40.493Z,27.40
2022-08-05T05:26:32.919Z,30.80
2022-08-05T05:27:45.716Z,27.50
2022-08-05T05:28:34.275Z,27.60
2022-08-05T05:29:40.893Z,30.90
2022-08-05T05:30:33.484Z,31.10
2022-08-05T05:32:31.868Z,29.80
2022-08-05T05:33:31.825Z,31.60
2022-08-05T05:34:31.821Z,29.10
2022-08-05T05:35:34.414Z,28.40
2022-08-05T05:36:31.809Z,32.40
2022-08-05T05:37:53.717Z,27.80
2022-08-05T05:38:31.797Z,28.90
2022-08-05T05:39:35.178Z,29.90
2022-08-05T05:40:32.097Z,28.60
2022-08-05T05:41:40.810Z,27.10
2022-08-05T05:42:31.741Z,27.00
2022-08-05T05:43:56.792Z,29.60
2022-08-05T05:44:36.898Z,27.40
2022-08-05T05:45:31.699Z,30.00
2022-08-05T05:46:31.687Z,31.30
2022-08-05T05:48:05.553Z,29.20
2022-08-05T05:48:31.679Z,29.30
2022-08-05T05:49:31.651Z,31.00
2022-08-05T05:50:31.639Z,25.90
2022-08-05T05:51:50.697Z,25.50
2022-08-05T05:52:34.730Z,29.40
2022-08-05T05:53:31.627Z,29.80
2022-08-05T05:54:50.473Z,27.50
2022-08-05T05:55:51.605Z,29.20
2022-08-05T05:56:34.461Z,26.60
2022-08-05T05:57:51.983Z,30.00
2022-08-05T05:58:32.505Z,30.50
2022-08-05T05:59:31.569Z,29.70
2022-08-05T06:00:34.216Z,31.60
2022-08-05T06:01:38.182Z,31.30
2022-08-05T06:02:36.866Z,32.10
2022-08-05T06:03:54.041Z,31.50
2022-08-05T06:04:33.757Z,29.10
2022-08-05T06:05:31.938Z,31.80
2022-08-05T06:06:33.246Z,32.00
2022-08-05T06:07:41.301Z,30.50
2022-08-05T06:08:32.962Z,32.80
2022-08-05T06:09:50.198Z,33.20
2022-08-05T06:10:36.722Z,31.40
2022-08-05T06:11:31.405Z,31.90
2022-08-05T06:12:31.444Z,30.00
2022-08-05T06:13:40.585Z,32.90
2022-08-05T06:14:31.418Z,32.80
2022-08-05T06:16:30.437Z,31.20
2022-08-05T06:16:36.608Z,35.30
2022-08-05T06:17:31.359Z,34.60
2022-08-05T06:18:31.830Z,34.60
2022-08-05T06:19:34.524Z,33.00
2022-08-05T06:20:31.321Z,33.00
2022-08-05T06:21:36.055Z,35.20
2022-08-05T06:22:33.662Z,27.50
2022-08-05T06:23:43.477Z,33.90
2022-08-05T06:24:31.262Z,28.00
2022-08-05T06:26:13.360Z,27.90
2022-08-05T06:26:33.791Z,30.20
2022-08-05T06:28:11.848Z,30.60
2022-08-05T06:28:31.233Z,30.20
2022-08-05T06:29:49.348Z,30.60
2022-08-05T06:30:31.201Z,28.10
2022-08-05T06:31:32.104Z,27.00
2022-08-05T06:32:31.176Z,28.80
2022-08-05T06:33:33.389Z,28.40
2022-08-05T06:34:31.149Z,25.40
2022-08-05T06:36:03.715Z,23.90
2022-08-05T06:36:53.698Z,23.30
2022-08-05T06:37:55.856Z,23.00
2022-08-05T06:38:36.721Z,23.10
2022-08-05T06:39:31.355Z,24.20
2022-08-05T06:40:32.503Z,23.90
2022-08-05T06:41:31.078Z,23.20
2022-08-05T06:42:31.067Z,26.60
2022-08-05T06:43:58.516Z,22.30
2022-08-05T06:44:31.055Z,22.00
2022-08-05T06:45:44.862Z,21.50
2022-08-05T06:46:31.022Z,20.30
2022-08-05T06:48:37.316Z,19.10
2022-08-05T06:48:53.641Z,17.90
2022-08-05T06:50:39.959Z,17.90
2022-08-05T06:51:41.024Z,19.60
2022-08-05T06:52:40.925Z,20.40
2022-08-05T06:53:40.918Z,22.60
2022-08-05T06:54:40.925Z,18.70
2022-08-05T06:55:42.052Z,17.90
2022-08-05T06:56:40.878Z,20.20
2022-08-05T06:58:03.493Z,20.00
2022-08-05T06:58:41.225Z,20.00
2022-08-05T06:59:42.389Z,19.10
2022-08-05T07:00:41.145Z,19.30
2022-08-05T07:01:42.424Z,17.10
2022-08-05T07:02:40.819Z,19.50
2022-08-05T07:03:40.817Z,19.60
2022-08-05T07:04:40.790Z,19.40
2022-08-05T07:05:41.282Z,18.60
2022-08-05T07:06:40.765Z,19.80
2022-08-05T07:07:43.911Z,23.30
2022-08-05T07:08:41.960Z,17.50
2022-08-05T07:09:40.750Z,18.20
2022-08-05T07:10:53.279Z,19.90
2022-08-05T07:11:40.709Z,17.80
2022-08-05T07:12:40.697Z,19.00
2022-08-05T07:13:58.179Z,18.40
2022-08-05T07:14:40.680Z,17.90
2022-08-05T07:16:00.928Z,19.20
2022-08-05T07:18:00.014Z,19.30
2022-08-05T07:18:00.995Z,20.70
2022-08-05T07:18:40.652Z,18.70
2022-08-05T07:20:31.380Z,17.80
2022-08-05T07:20:40.608Z,19.20
2022-08-05T07:22:00.082Z,18.30
2022-08-05T07:22:42.026Z,18.30
2022-08-05T07:23:50.077Z,16.60
2022-08-05T07:24:44.072Z,17.20
2022-08-05T07:25:56.501Z,17.20
2022-08-05T07:26:40.544Z,17.40
2022-08-05T07:27:57.456Z,16.90
2022-08-05T07:28:40.523Z,16.50
2022-08-05T07:30:25.347Z,16.40
2022-08-05T07:30:40.494Z,15.90
2022-08-05T07:31:54.664Z,15.40
2022-08-05T07:32:40.505Z,15.20
2022-08-05T07:33:40.463Z,15.60
2022-08-05T07:34:42.249Z,15.80
2022-08-05T07:36:01.558Z,15.60
2022-08-05T07:36:40.439Z,15.70
2022-08-05T07:37:40.433Z,14.50
2022-08-05T07:38:43.242Z,14.40
2022-08-05T07:40:04.520Z,14.10
2022-08-05T07:40:44.530Z,14.50
2022-08-05T07:42:09.548Z,14.90
2022-08-05T07:42:40.365Z,13.40
2022-08-05T07:43:40.356Z,14.00
2022-08-05T07:44:40.346Z,13.50
2022-08-05T07:45:57.493Z,13.90
2022-08-05T07:46:40.339Z,13.50
2022-08-05T07:47:42.190Z,12.70
2022-08-05T07:49:02.656Z,12.90
2022-08-05T07:49:43.389Z,12.20
2022-08-05T07:50:40.281Z,13.00
2022-08-05T07:51:53.490Z,13.40
2022-08-05T07:52:40.256Z,12.20
2022-08-05T07:53:49.898Z,13.80
2022-08-05T07:54:41.414Z,12.50
2022-08-05T07:56:04.918Z,13.00
2022-08-05T07:57:13.531Z,12.50
2022-08-05T07:57:51.307Z,12.90
2022-08-05T07:58:57.703Z,12.70
2022-08-05T07:59:41.133Z,12.70
2022-08-05T08:00:40.271Z,13.10
2022-08-05T08:01:51.817Z,14.70
2022-08-05T08:03:14.638Z,12.20
2022-08-05T08:03:44.559Z,11.50
2022-08-05T08:04:40.120Z,12.10
2022-08-05T08:05:42.652Z,12.80
2022-08-05T08:06:40.101Z,12.30
2022-08-05T08:07:59.921Z,11.80
2022-08-05T08:08:40.079Z,12.60
2022-08-05T08:09:40.070Z,11.90
2022-08-05T08:10:40.073Z,12.00
2022-08-05T08:11:47.810Z,12.70
2022-08-05T08:12:49.563Z,12.00
2022-08-05T08:13:42.960Z,11.70
2022-08-05T08:14:40.849Z,12.70
2022-08-05T08:16:35.318Z,12.10
2022-08-05T08:16:50.889Z,13.60
2022-08-05T08:17:43.977Z,12.90
2022-08-05T08:18:39.976Z,13.50
2022-08-05T08:20:22.360Z,13.90
2022-08-05T08:20:44.466Z,14.80
2022-08-05T08:21:39.953Z,13.60
2022-08-05T08:22:39.935Z,13.70
2022-08-05T08:24:01.238Z,14.90
2022-08-05T08:24:51.243Z,15.60
2022-08-05T08:26:00.486Z,14.70
2022-08-05T08:26:39.875Z,14.70
2022-08-05T08:27:47.927Z,14.30
2022-08-05T08:28:59.252Z,15.10
2022-08-05T08:30:05.601Z,14.20
2022-08-05T08:30:47.921Z,15.80
2022-08-05T08:31:39.821Z,15.20
2022-08-05T08:32:39.878Z,13.40
2022-08-05T08:33:39.803Z,13.40
2022-08-05T08:34:39.789Z,13.40
2022-08-05T08:35:41.315Z,13.60
2022-08-05T08:36:47.633Z,13.10
2022-08-05T08:37:39.775Z,13.80
2022-08-05T08:38:39.787Z,13.90
2022-08-05T08:39:49.423Z,13.80
2022-08-05T08:40:39.741Z,13.40
2022-08-05T08:41:52.275Z,13.80
2022-08-05T08:42:50.569Z,13.50
2022-08-05T08:45:25.092Z,14.50
2022-08-05T08:45:25.130Z,15.10
2022-08-05T08:45:39.676Z,16.00
2022-08-05T08:46:39.677Z,15.20
2022-08-05T08:48:06.805Z,16.60
2022-08-05T08:49:03.010Z,17.50
2022-08-05T08:50:22.628Z,17.20
2022-08-05T08:52:03.506Z,16.90
2022-08-05T08:52:51.623Z,17.60
2022-08-05T08:53:49.544Z,18.60
2022-08-05T08:54:49.538Z,18.70
2022-08-05T08:56:04.357Z,15.30
2022-08-05T08:56:49.557Z,16.40
2022-08-05T08:57:58.419Z,16.30
2022-08-05T08:58:49.587Z,16.00
2022-08-05T08:59:49.478Z,15.70
2022-08-05T09:00:49.532Z,16.00
2022-08-05T09:01:57.390Z,14.20
2022-08-05T09:02:49.462Z,13.00
2022-08-05T09:03:54.258Z,13.30
2022-08-05T09:05:16.130Z,12.80
2022-08-05T09:06:09.273Z,12.30
2022-08-05T09:06:49.899Z,11.90
2022-08-05T09:07:57.377Z,10.80
2022-08-05T09:08:49.403Z,12.80
2022-08-05T09:09:49.373Z,10.80
2022-08-05T09:10:49.384Z,10.30
2022-08-05T09:11:53.126Z,10.60
2022-08-05T09:12:51.086Z,12.70
2022-08-05T09:14:01.171Z,10.10
2022-08-05T09:14:58.276Z,9.80
2022-08-05T09:15:49.346Z,10.20
2022-08-05T09:16:49.296Z,9.80
2022-08-05T09:17:49.748Z,9.60
2022-08-05T09:18:49.270Z,9.70
2022-08-05T09:20:01.434Z,10.50
2022-08-05T09:20:49.270Z,10.10
2022-08-05T09:22:21.852Z,9.80
2022-08-05T09:22:51.954Z,10.50
2022-08-05T09:23:49.217Z,9.30
2022-08-05T09:24:49.209Z,9.20
2022-08-05T09:26:01.996Z,10.00
2022-08-05T09:26:51.874Z,9.60
2022-08-05T09:28:05.466Z,9.10
2022-08-05T09:28:49.162Z,10.40
2022-08-05T09:29:49.155Z,10.00
2022-08-05T09:30:49.427Z,9.20
2022-08-05T09:32:41.178Z,9.80
2022-08-05T09:32:49.111Z,11.60
2022-08-05T09:33:49.154Z,10.00
2022-08-05T09:34:49.111Z,10.90
2022-08-05T09:35:49.106Z,12.30
2022-08-05T09:36:55.589Z,11.30
2022-08-05T09:38:18.415Z,10.70
2022-08-05T09:38:49.058Z,11.10
2022-08-05T09:39:52.320Z,11.00
2022-08-05T09:40:52.448Z,11.70
2022-08-05T09:41:56.261Z,11.90
2022-08-05T09:42:49.014Z,12.70
2022-08-05T09:43:49.369Z,12.80
2022-08-05T09:44:50.433Z,12.30
2022-08-05T09:46:07.082Z,12.40
2022-08-05T09:46:53.452Z,12.80
2022-08-05T09:47:56.566Z,13.20
2022-08-05T09:49:06.904Z,12.90
2022-08-05T09:50:00.781Z,13.60
2022-08-05T09:50:48.923Z,14.20
2022-08-05T09:51:49.752Z,15.50
2022-08-05T09:52:52.902Z,15.20
2022-08-05T09:53:53.710Z,14.10
2022-08-05T09:54:48.879Z,15.90
2022-08-05T09:55:58.550Z,14.50
2022-08-05T09:56:52.412Z,15.20
2022-08-05T09:57:48.839Z,14.80
2022-08-05T09:58:50.199Z,15.70
2022-08-05T09:59:48.841Z,15.90
2022-08-05T10:00:48.808Z,15.80
2022-08-05T10:01:48.821Z,15.90
2022-08-05T10:02:48.945Z,15.80
2022-08-05T10:03:59.124Z,15.40
2022-08-05T10:04:48.784Z,16.20
2022-08-05T10:05:48.782Z,17.10
2022-08-05T10:06:54.603Z,16.40
2022-08-05T10:08:10.628Z,16.00
2022-08-05T10:08:53.970Z,16.80
2022-08-05T10:09:48.724Z,15.70
2022-08-05T10:10:50.496Z,15.50
2022-08-05T10:11:48.687Z,14.10
2022-08-05T10:12:50.069Z,13.70
2022-08-05T10:13:49.327Z,13.70
2022-08-05T10:14:48.656Z,14.90
2022-08-05T10:15:48.649Z,14.90
2022-08-05T10:16:52.955Z,14.80
2022-08-05T10:17:56.580Z,13.50
2022-08-05T10:18:48.614Z,13.00
2022-08-05T10:20:04.488Z,10.10
2022-08-05T10:20:48.813Z,9.70
2022-08-05T10:21:48.584Z,8.20
2022-08-05T10:22:50.797Z,8.90
2022-08-05T10:23:59.362Z,7.90
2022-08-05T10:24:48.556Z,8.10
2022-08-05T10:25:48.538Z,7.70
2022-08-05T10:26:51.637Z,8.50
2022-08-05T10:28:12.980Z,7.70
2022-08-05T10:28:48.579Z,8.10
2022-08-05T10:30:41.581Z,9.90
2022-08-05T10:32:52.430Z,9.60
2022-08-05T10:32:54.722Z,8.00
2022-08-05T10:33:00.754Z,7.80
2022-08-05T10:33:54.014Z,8.50
2022-08-05T10:34:48.441Z,7.40
2022-08-05T10:35:59.839Z,7.30
2022-08-05T10:36:48.432Z,7.70
2022-08-05T10:37:48.418Z,8.60
2022-08-05T10:38:48.411Z,7.70
2022-08-05T10:39:58.998Z,7.10
2022-08-05T10:40:48.478Z,7.20
2022-08-05T10:41:48.373Z,6.90
2022-08-05T10:42:48.353Z,6.50
2022-08-05T10:43:48.623Z,6.20
2022-08-05T10:44:48.339Z,7.30
2022-08-05T10:45:48.334Z,6.50
2022-08-05T10:46:50.905Z,6.10
2022-08-05T10:47:56.435Z,5.80
2022-08-05T10:48:56.885Z,6.00
2022-08-05T10:49:48.977Z,7.40
2022-08-05T10:50:48.266Z,6.30
2022-08-05T10:52:58.831Z,5.60
2022-08-05T10:54:00.904Z,6.60
2022-08-05T10:54:58.203Z,7.60
2022-08-05T10:56:04.933Z,8.20
2022-08-05T10:56:58.163Z,7.10
2022-08-05T10:57:58.154Z,7.40
2022-08-05T10:58:58.141Z,7.20
2022-08-05T11:00:03.710Z,7.40
2022-08-05T11:01:02.978Z,7.90
2022-08-05T11:02:05.202Z,6.70
2022-08-05T11:02:58.192Z,6.90
2022-08-05T11:03:58.153Z,7.40
2022-08-05T11:04:58.101Z,6.60
2022-08-05T11:05:58.076Z,7.60
2022-08-05T11:06:58.064Z,6.40
2022-08-05T11:08:02.462Z,6.70
2022-08-05T11:08:58.044Z,6.90
2022-08-05T11:10:03.624Z,7.10
2022-08-05T11:11:01.132Z,7.10
2022-08-05T11:11:57.991Z,8.20
2022-08-05T11:12:58.005Z,8.70
2022-08-05T11:13:58.534Z,8.10
2022-08-05T11:15:11.894Z,6.80
2022-08-05T11:16:01.252Z,7.40
2022-08-05T11:17:00.201Z,7.80
2022-08-05T11:18:03.812Z,7.50
2022-08-05T11:18:57.917Z,6.70
2022-08-05T11:20:10.370Z,8.70
2022-08-05T11:20:57.909Z,6.50
2022-08-05T11:21:57.975Z,6.20
2022-08-05T11:23:02.175Z,8.10
2022-08-05T11:24:04.075Z,7.70
2022-08-05T11:25:16.596Z,5.90
2022-08-05T11:26:05.243Z,7.40
2022-08-05T11:26:57.835Z,7.50
2022-08-05T11:28:00.649Z,7.10
2022-08-05T11:28:59.412Z,6.00
2022-08-05T11:29:57.796Z,6.70
2022-08-05T11:30:58.512Z,6.30
2022-08-05T11:32:00.499Z,6.20
2022-08-05T11:32:57.771Z,6.60
2022-08-05T11:33:57.747Z,5.60
2022-08-05T11:34:57.751Z,6.00
2022-08-05T11:36:07.538Z,6.30
2022-08-05T11:36:57.732Z,8.70
2022-08-05T11:38:29.747Z,6.30
2022-08-05T11:38:58.348Z,5.60
2022-08-05T11:40:03.064Z,5.30
2022-08-05T11:41:01.787Z,5.70
2022-08-05T11:42:02.050Z,5.30
2022-08-05T11:42:57.652Z,6.10
2022-08-05T11:44:06.365Z,5.50
2022-08-05T11:44:57.629Z,5.70
2022-08-05T11:46:27.214Z,5.90
2022-08-05T11:47:10.274Z,6.80
2022-08-05T11:47:57.621Z,7.50
2022-08-05T11:48:57.579Z,5.10
2022-08-05T11:49:57.586Z,4.70
2022-08-05T11:50:57.573Z,4.80
2022-08-05T11:51:57.900Z,5.90
2022-08-05T11:52:58.429Z,4.70
2022-08-05T11:53:57.521Z,4.40
2022-08-05T11:54:57.546Z,6.30
2022-08-05T11:55:57.501Z,3.90
2022-08-05T11:56:57.523Z,4.40
2022-08-05T11:58:10.087Z,5.80
2022-08-05T11:58:57.473Z,4.90
2022-08-05T11:59:57.492Z,4.60
2022-08-05T12:00:57.612Z,5.30
2022-08-05T12:01:57.441Z,5.80
2022-08-05T12:02:57.549Z,4.80
2022-08-05T12:03:57.418Z,5.20
2022-08-05T12:04:59.634Z,4.30
2022-08-05T12:05:57.404Z,5.20
2022-08-05T12:06:57.384Z,4.80
2022-08-05T12:08:08.931Z,4.60
2022-08-05T12:08:57.392Z,4.90
2022-08-05T12:09:57.367Z,5.10
2022-08-05T12:10:57.367Z,5.40
2022-08-05T12:11:57.338Z,6.80
2022-08-05T12:13:00.277Z,5.90
2022-08-05T12:13:58.762Z,5.90
2022-08-05T12:14:57.316Z,7.10
2022-08-05T12:15:57.294Z,5.50
2022-08-05T12:16:57.318Z,5.00
2022-08-05T12:18:03.891Z,5.20
2022-08-05T12:18:57.258Z,5.50
2022-08-05T12:20:16.714Z,6.10
2022-08-05T12:20:57.245Z,5.40
2022-08-05T12:21:57.222Z,5.20
2022-08-05T12:22:57.214Z,5.80
2022-08-05T12:23:57.200Z,5.40
2022-08-05T12:24:57.229Z,7.10
2022-08-05T12:25:57.346Z,5.40
2022-08-05T12:26:57.167Z,4.90
2022-08-05T12:27:57.146Z,4.90
2022-08-05T12:28:57.137Z,5.20
2022-08-05T12:29:57.136Z,5.80
2022-08-05T12:30:57.133Z,6.10
2022-08-05T12:31:57.103Z,4.60
2022-08-05T12:32:57.099Z,5.00
2022-08-05T12:33:58.276Z,4.70
2022-08-05T12:34:57.074Z,4.80
2022-08-05T12:35:57.119Z,5.20
2022-08-05T12:36:57.069Z,4.40
2022-08-05T12:37:57.036Z,6.70
2022-08-05T12:38:57.062Z,4.10
2022-08-05T12:39:57.103Z,4.10
2022-08-05T12:40:57.007Z,5.20
2022-08-05T12:41:57.981Z,4.60
2022-08-05T12:42:56.989Z,3.90
2022-08-05T12:43:56.967Z,4.80
2022-08-05T12:44:56.979Z,6.50
2022-08-05T12:45:56.952Z,3.60
2022-08-05T12:46:56.952Z,3.70
2022-08-05T12:48:01.488Z,3.40
2022-08-05T12:48:56.915Z,3.10
2022-08-05T12:50:03.698Z,3.50
2022-08-05T12:50:56.911Z,3.50
2022-08-05T12:52:12.036Z,3.70
2022-08-05T12:54:16.614Z,5.10
2022-08-05T12:55:06.816Z,3.80
2022-08-05T12:56:06.802Z,2.90
2022-08-05T12:57:09.713Z,3.00
2022-08-05T12:58:49.099Z,3.70
2022-08-05T12:59:09.401Z,3.00
2022-08-05T13:01:57.647Z,2.70
2022-08-05T13:02:01.382Z,2.70
2022-08-05T13:02:06.972Z,3.80
2022-08-05T13:03:06.914Z,3.10
2022-08-05T13:04:07.612Z,2.70
2022-08-05T13:05:06.707Z,2.50
2022-08-05T13:06:06.696Z,2.50
2022-08-05T13:07:10.418Z,2.90
2022-08-05T13:08:08.647Z,3.30
2022-08-05T13:09:08.535Z,3.20
2022-08-05T13:10:06.653Z,2.90
2022-08-05T13:11:06.642Z,3.10
2022-08-05T13:12:06.635Z,2.40
2022-08-05T13:13:06.642Z,2.60
2022-08-05T13:14:07.642Z,3.20
2022-08-05T13:15:10.021Z,3.70
2022-08-05T13:16:06.602Z,4.90
2022-08-05T13:17:06.603Z,4.80